Time;durP1;ratioP1;P1;durP2;ratioP2;P2;SDS_P1;SDS_P2;PMS_P1;PMS_P2;Temp;Humidity;BMP_temperature;BMP_pressure;BME280_temperature;BME280_humidity;BME280_pressure;Samples;Min_cycle;Max_cycle;Signal;HPM_P1;HPM_P2
2022/11/29 00:01:56;;;;;;;15.90;14.30;;;8.90;99.90;;;;;;5032962;28;20225;-69
2022/11/29 00:04:21;;;;;;;14.53;12.97;;;8.90;99.90;;;;;;5031233;28;20939;-70
2022/11/29 00:06:47;;;;;;;16.93;15.20;;;8.60;99.90;;;;;;5029473;28;20226;-69
2022/11/29 00:09:13;;;;;;;17.13;14.37;;;8.80;99.90;;;;;;5032070;28;20654;-70
2022/11/29 00:14:25;;;;;;;15.18;13.57;;;8.70;99.90;;;;;;5025629;28;20248;-71
2022/11/29 00:16:54;;;;;;;14.55;13.15;;;8.90;99.90;;;;;;5029041;28;20675;-70
2022/11/29 00:19:20;;;;;;;14.80;13.30;;;8.90;99.90;;;;;;5028398;28;20226;-71
2022/11/29 00:21:46;;;;;;;14.57;12.97;;;8.70;99.90;;;;;;5030778;28;20249;-69
2022/11/29 00:24:12;;;;;;;15.40;12.97;;;8.90;99.90;;;;;;5031952;28;20941;-70
2022/11/29 00:26:38;;;;;;;15.73;13.63;;;9.00;99.90;;;;;;5031244;28;20848;-70
2022/11/29 00:29:04;;;;;;;13.33;12.03;;;9.00;99.90;;;;;;5031969;28;20269;-70
2022/11/29 00:31:31;;;;;;;13.75;12.32;;;8.70;99.90;;;;;;5159274;23;20906;-66
2022/11/29 00:33:59;;;;;;;14.82;13.23;;;8.90;99.90;;;;;;5027959;28;20332;-65
2022/11/29 00:36:26;;;;;;;13.70;12.30;;;8.80;99.90;;;;;;5031043;28;20286;-64
2022/11/29 00:38:52;;;;;;;16.88;13.73;;;8.70;99.90;;;;;;5045887;28;20182;-65
2022/11/29 00:41:18;;;;;;;13.33;12.03;;;8.80;99.90;;;;;;5030594;28;20202;-65
2022/11/29 00:43:43;;;;;;;13.75;12.25;;;8.80;99.90;;;;;;5031253;28;20203;-64
2022/11/29 00:46:09;;;;;;;16.10;12.87;;;9.00;99.90;;;;;;5030485;28;20185;-65
2022/11/29 00:48:35;;;;;;;14.75;13.30;;;8.70;99.90;;;;;;5031282;28;20272;-65
2022/11/29 00:51:02;;;;;;;16.10;14.17;;;8.80;99.90;;;;;;5029893;28;20225;-64
2022/11/29 00:53:28;;;;;;;14.38;12.93;;;9.20;99.90;;;;;;5033050;28;20833;-64
2022/11/29 00:55:54;;;;;;;15.00;12.90;;;8.90;99.90;;;;;;5032733;28;20182;-66
2022/11/29 00:58:20;;;;;;;13.13;11.77;;;9.20;99.90;;;;;;5031253;28;20540;-65
2022/11/29 01:00:46;;;;;;;14.48;12.95;;;9.10;99.90;;;;;;5028448;28;20179;-66
2022/11/29 01:03:13;;;;;;;14.43;12.85;;;8.80;99.90;;;;;;5031373;28;20214;-64
2022/11/29 01:05:39;;;;;;;14.85;13.00;;;8.90;99.90;;;;;;5031014;28;20175;-65
2022/11/29 01:08:04;;;;;;;15.90;13.70;;;8.80;99.90;;;;;;5031666;28;20608;-65
2022/11/29 01:10:30;;;;;;;15.67;12.90;;;8.80;99.90;;;;;;5030064;28;20437;-66
2022/11/29 01:12:56;;;;;;;13.65;12.35;;;9.00;99.90;;;;;;5030930;28;20190;-65
2022/11/29 01:15:22;;;;;;;15.30;13.00;;;9.00;99.90;;;;;;5030800;28;20189;-65
2022/11/29 01:17:48;;;;;;;14.17;12.43;;;9.20;99.90;;;;;;5030178;28;20174;-66
2022/11/29 01:20:14;;;;;;;15.10;13.50;;;9.30;99.90;;;;;;5030361;28;20451;-67
2022/11/29 01:22:40;;;;;;;14.43;12.63;;;9.20;99.90;;;;;;5027103;28;20218;-65
2022/11/29 01:25:07;;;;;;;14.27;12.77;;;8.90;99.90;;;;;;5032431;28;20198;-67
2022/11/29 01:27:33;;;;;;;15.30;13.75;;;8.90;99.90;;;;;;5026843;28;20447;-64
2022/11/29 01:29:58;;;;;;;14.87;12.90;;;8.60;99.90;;;;;;5031731;28;20186;-64
2022/11/29 01:32:24;;;;;;;14.50;13.00;;;8.60;99.90;;;;;;5031967;28;20439;-64
2022/11/29 01:34:50;;;;;;;16.53;12.77;;;8.80;99.90;;;;;;5030296;28;21029;-63
2022/11/29 01:37:16;;;;;;;15.13;13.53;;;8.50;99.90;;;;;;5031730;28;20201;-63
2022/11/29 01:39:41;;;;;;;13.60;12.10;;;8.70;99.90;;;;;;5032081;28;20186;-64
2022/11/29 01:42:10;;;;;;;14.83;13.33;;;8.70;99.90;;;;;;5031309;28;20210;-65
2022/11/29 01:44:35;;;;;;;13.77;12.38;;;8.90;99.90;;;;;;5032871;28;20260;-64
2022/11/29 01:47:01;;;;;;;15.07;13.40;;;8.90;99.90;;;;;;5030239;28;20183;-65
2022/11/29 01:49:34;;;;;;;14.73;12.57;;;9.20;99.90;;;;;;5032023;28;20539;-66
2022/11/29 01:52:03;;;;;;;15.00;13.27;;;8.80;99.90;;;;;;5027945;28;20483;-65
2022/11/29 01:54:31;;;;;;;15.55;11.77;;;8.80;99.90;;;;;;5029927;28;20260;-65
2022/11/29 01:56:58;;;;;;;13.30;11.90;;;8.80;99.90;;;;;;5026860;28;20191;-65
2022/11/29 01:59:27;;;;;;;12.82;11.52;;;9.00;99.90;;;;;;5031441;28;20182;-64
2022/11/29 02:01:57;;;;;;;15.15;12.85;;;8.90;99.90;;;;;;5031488;28;20210;-64
2022/11/29 02:04:22;;;;;;;14.57;13.07;;;9.20;99.90;;;;;;5030240;28;20701;-65
2022/11/29 02:06:48;;;;;;;14.70;12.27;;;9.10;99.90;;;;;;5029401;28;20182;-65
2022/11/29 02:09:20;;;;;;;13.30;12.00;;;9.00;99.90;;;;;;5029667;28;20187;-65
2022/11/29 02:11:52;;;;;;;13.30;12.00;;;9.20;99.90;;;;;;5029073;28;20662;-64
2022/11/29 02:14:46;;;;;;;14.73;11.70;;;9.00;99.90;;;;;;5029279;28;20337;-65
2022/11/29 02:17:15;;;;;;;13.15;11.85;;;9.00;99.90;;;;;;5028504;28;20193;-65
2022/11/29 02:19:54;;;;;;;14.63;13.00;;;8.80;99.90;;;;;;5029060;28;20209;-64
2022/11/29 02:22:37;;;;;;;13.70;12.10;;;9.00;99.90;;;;;;5019076;28;20216;-64
2022/11/29 02:25:21;;;;;;;13.43;11.90;;;8.90;99.90;;;;;;5031006;28;20222;-67
2022/11/29 02:28:02;;;;;;;13.80;12.43;;;8.80;99.90;;;;;;5028311;28;20265;-66
2022/11/29 02:31:00;;;;;;;14.40;12.18;;;9.00;99.90;;;;;;5025327;28;20186;-66
2022/11/29 02:33:50;;;;;;;13.82;11.27;;;8.80;99.90;;;;;;5027982;28;20302;-65
2022/11/29 02:36:22;;;;;;;13.30;11.60;;;8.70;99.90;;;;;;5029655;28;20205;-64
2022/11/29 02:39:18;;;;;;;15.38;11.80;;;9.00;99.90;;;;;;5030018;28;20189;-64
2022/11/29 02:41:55;;;;;;;12.20;10.90;;;8.80;99.90;;;;;;5027102;28;20210;-64
2022/11/29 02:44:32;;;;;;;12.63;11.38;;;9.00;99.90;;;;;;5029559;28;20199;-64
2022/11/29 02:47:14;;;;;;;11.73;10.55;;;8.90;99.90;;;;;;5030447;28;20200;-64
2022/11/29 02:49:55;;;;;;;15.00;11.95;;;9.10;99.90;;;;;;5035932;28;20181;-66
2022/11/29 02:52:38;;;;;;;11.43;10.32;;;9.10;99.90;;;;;;5027733;28;20221;-66
2022/11/29 02:55:26;;;;;;;11.90;10.73;;;9.00;99.90;;;;;;5027336;28;20214;-67
2022/11/29 02:58:01;;;;;;;12.60;11.40;;;9.00;99.90;;;;;;5027286;28;20178;-66
2022/11/29 03:00:27;;;;;;;13.48;11.90;;;8.90;99.90;;;;;;5028362;28;20282;-66
2022/11/29 03:03:05;;;;;;;12.75;11.05;;;8.90;99.90;;;;;;5029756;28;20221;-67
2022/11/29 03:05:45;;;;;;;12.85;11.55;;;8.90;99.90;;;;;;5029401;28;20535;-65
2022/11/29 03:08:36;;;;;;;12.70;11.40;;;8.70;99.90;;;;;;5029105;28;20179;-66
2022/11/29 03:11:15;;;;;;;11.98;10.77;;;8.70;99.90;;;;;;5027053;28;20182;-66
2022/11/29 03:13:54;;;;;;;12.88;11.32;;;8.70;99.90;;;;;;5029958;28;20208;-65
2022/11/29 03:16:50;;;;;;;11.55;10.27;;;8.50;99.90;;;;;;5032371;28;20416;-67
2022/11/29 03:19:47;;;;;;;12.95;10.63;;;8.60;99.90;;;;;;5025942;28;20542;-67
2022/11/29 03:22:31;;;;;;;13.15;11.60;;;8.90;99.90;;;;;;5031988;28;20202;-68
2022/11/29 03:25:06;;;;;;;12.20;11.00;;;8.80;99.90;;;;;;5034532;28;20208;-67
2022/11/29 03:27:46;;;;;;;12.93;11.60;;;8.50;99.90;;;;;;5032807;28;20205;-67
2022/11/29 03:30:16;;;;;;;13.32;11.10;;;8.70;99.90;;;;;;5046579;28;20259;-66
2022/11/29 03:32:53;;;;;;;13.20;11.90;;;8.80;99.90;;;;;;5031874;28;20249;-65
2022/11/29 03:35:52;;;;;;;12.30;11.10;;;8.80;99.90;;;;;;5048240;28;20186;-65
2022/11/29 03:38:38;;;;;;;12.60;11.30;;;8.80;99.90;;;;;;5033605;28;20558;-65
2022/11/29 03:41:16;;;;;;;13.52;12.13;;;8.80;99.90;;;;;;5028863;28;20524;-64
2022/11/29 03:44:13;;;;;;;13.48;12.07;;;8.80;99.90;;;;;;5047641;28;20206;-65
2022/11/29 03:46:47;;;;;;;16.17;12.10;;;8.60;99.90;;;;;;5044727;28;20178;-65
2022/11/29 03:49:28;;;;;;;12.63;11.40;;;8.80;99.90;;;;;;5046788;28;20178;-65
2022/11/29 03:52:15;;;;;;;10.52;9.52;;;8.80;99.90;;;;;;5030115;28;20194;-65
2022/11/29 03:55:10;;;;;;;12.20;10.75;;;8.90;99.90;;;;;;5031247;28;20210;-65
2022/11/29 03:57:41;;;;;;;14.25;10.73;;;8.70;99.90;;;;;;5031948;28;20691;-66
2022/11/29 04:00:09;;;;;;;13.20;11.80;;;9.20;99.90;;;;;;5025315;28;20280;-66
2022/11/29 04:02:35;;;;;;;11.82;10.60;;;8.80;99.90;;;;;;5030779;28;20305;-66
2022/11/29 04:05:04;;;;;;;11.80;10.60;;;9.10;99.90;;;;;;5032268;28;20285;-65
2022/11/29 04:07:53;;;;;;;11.52;10.43;;;9.10;99.90;;;;;;5031238;28;20183;-65
2022/11/29 04:10:46;;;;;;;11.30;10.10;;;9.20;99.90;;;;;;5029447;28;20208;-66
2022/11/29 04:13:34;;;;;;;10.75;9.45;;;9.30;99.90;;;;;;5031896;28;20232;-65
2022/11/29 04:16:27;;;;;;;11.15;9.95;;;9.00;99.90;;;;;;5030924;28;20647;-66
2022/11/29 04:19:15;;;;;;;11.50;9.98;;;9.10;99.90;;;;;;5029124;28;20347;-65
2022/11/29 04:21:41;;;;;;;10.88;9.18;;;9.00;99.90;;;;;;5028389;28;20208;-65
2022/11/29 04:24:28;;;;;;;12.03;10.77;;;8.90;99.90;;;;;;5035866;28;20199;-66
2022/11/29 04:27:14;;;;;;;11.65;9.23;;;9.10;99.90;;;;;;5036264;28;20183;-65
2022/11/29 04:29:48;;;;;;;12.75;10.10;;;9.10;99.90;;;;;;5034900;28;20170;-65
2022/11/29 04:32:23;;;;;;;10.10;9.10;;;9.20;99.90;;;;;;5034923;28;20205;-63
2022/11/29 04:35:08;;;;;;;12.82;9.40;;;9.20;99.90;;;;;;5030711;28;20746;-65
2022/11/29 04:37:48;;;;;;;10.68;9.55;;;9.10;99.90;;;;;;5029104;28;20244;-66
2022/11/29 04:40:44;;;;;;;12.13;10.98;;;9.10;99.90;;;;;;5025798;28;20195;-64
2022/11/29 04:43:34;;;;;;;9.43;8.55;;;9.10;99.90;;;;;;5027045;28;20218;-65
2022/11/29 04:46:31;;;;;;;9.32;8.35;;;9.20;99.90;;;;;;5031456;28;20221;-66
2022/11/29 04:49:28;;;;;;;10.85;9.50;;;9.10;99.90;;;;;;5045272;28;20174;-66
2022/11/29 04:52:15;;;;;;;10.15;9.05;;;9.50;99.90;;;;;;5026921;28;20210;-64
2022/11/29 04:54:51;;;;;;;9.70;8.80;;;9.30;99.90;;;;;;5019719;28;20218;-65
2022/11/29 04:57:36;;;;;;;9.52;8.15;;;9.30;99.90;;;;;;5030853;28;20314;-64
2022/11/29 05:00:11;;;;;;;9.50;8.60;;;9.30;99.90;;;;;;5022887;28;20538;-64
2022/11/29 05:02:48;;;;;;;9.40;8.50;;;9.50;99.90;;;;;;5032287;28;20304;-66
2022/11/29 05:05:40;;;;;;;10.60;9.15;;;9.50;99.90;;;;;;5045594;28;20201;-64
2022/11/29 05:08:33;;;;;;;9.85;8.90;;;9.50;99.90;;;;;;5024603;28;20187;-66
2022/11/29 05:11:08;;;;;;;8.82;7.95;;;9.40;99.90;;;;;;5031850;28;20534;-66
2022/11/29 05:14:05;;;;;;;10.27;9.10;;;9.30;99.90;;;;;;5038682;28;20291;-66
2022/11/29 05:16:45;;;;;;;10.00;9.00;;;9.30;99.90;;;;;;5029346;28;20182;-65
2022/11/29 05:19:23;;;;;;;8.85;7.95;;;9.60;99.90;;;;;;5027971;28;20187;-65
2022/11/29 05:22:10;;;;;;;9.35;8.55;;;9.50;99.90;;;;;;5025752;28;20667;-65
2022/11/29 05:24:54;;;;;;;6.57;6.00;;;9.60;99.90;;;;;;5031257;28;20710;-65
2022/11/29 05:27:20;;;;;;;7.32;6.63;;;9.30;99.90;;;;;;5028483;28;20195;-65
2022/11/29 05:29:52;;;;;;;7.00;6.00;;;9.30;99.90;;;;;;5032521;28;20610;-65
2022/11/29 05:32:23;;;;;;;8.05;6.50;;;9.20;99.90;;;;;;5030383;28;20224;-66
2022/11/29 05:35:18;;;;;;;5.03;4.50;;;9.10;99.90;;;;;;5035123;28;20258;-65
2022/11/29 05:38:10;;;;;;;5.25;4.60;;;9.40;99.90;;;;;;5026005;28;20194;-65
2022/11/29 05:40:56;;;;;;;6.47;5.43;;;9.10;99.90;;;;;;5010930;28;20703;-64
2022/11/29 05:43:22;;;;;;;5.03;3.95;;;9.20;99.90;;;;;;5031922;28;20264;-66
2022/11/29 05:45:53;;;;;;;4.80;4.40;;;9.20;99.90;;;;;;5026155;28;20659;-64
2022/11/29 05:49:06;;;;;;;4.90;4.50;;;9.40;99.90;;;;;;5028081;28;20524;-65
2022/11/29 05:51:38;;;;;;;6.57;4.57;;;9.60;99.90;;;;;;4963923;28;20216;-65
2022/11/29 05:54:25;;;;;;;5.47;4.40;;;9.20;99.90;;;;;;5028306;28;20749;-65
2022/11/29 05:57:11;;;;;;;4.43;4.03;;;9.20;99.90;;;;;;5031635;28;20206;-66
2022/11/29 05:59:38;;;;;;;4.32;3.92;;;9.10;99.90;;;;;;5029708;28;20593;-66
2022/11/29 06:02:11;;;;;;;5.10;4.20;;;9.30;99.90;;;;;;5027504;28;20245;-66
2022/11/29 06:04:54;;;;;;;4.13;3.72;;;9.10;99.90;;;;;;5024719;28;20552;-65
2022/11/29 06:07:31;;;;;;;4.63;4.22;;;9.30;99.90;;;;;;5029381;28;20856;-65
2022/11/29 06:10:03;;;;;;;4.45;4.05;;;9.40;99.90;;;;;;5027224;28;20250;-66
2022/11/29 06:12:34;;;;;;;4.80;4.40;;;9.40;99.90;;;;;;5023664;28;20553;-65
2022/11/29 06:15:10;;;;;;;5.05;4.55;;;9.20;99.90;;;;;;5031624;28;20626;-64
2022/11/29 06:17:42;;;;;;;6.63;4.25;;;9.30;99.90;;;;;;5023027;28;20184;-66
2022/11/29 06:20:50;;;;;;;5.18;3.88;;;9.10;99.90;;;;;;5026793;28;20522;-66
2022/11/29 06:23:32;;;;;;;6.30;4.40;;;9.30;99.90;;;;;;4989818;28;20224;-65
2022/11/29 06:26:07;;;;;;;4.20;3.80;;;9.60;99.90;;;;;;5026948;28;20186;-65
2022/11/29 06:28:54;;;;;;;4.13;3.72;;;9.50;99.90;;;;;;5043111;28;20730;-65
2022/11/29 06:31:43;;;;;;;4.57;4.18;;;9.50;99.90;;;;;;5028852;28;20640;-65
2022/11/29 06:34:09;;;;;;;5.10;4.60;;;9.60;99.90;;;;;;5029287;28;20226;-66
2022/11/29 06:36:59;;;;;;;4.30;3.43;;;9.40;99.90;;;;;;5027651;28;20240;-67
2022/11/29 06:39:25;;;;;;;5.70;4.00;;;9.30;99.90;;;;;;5026775;28;20202;-67
2022/11/29 06:41:50;;;;;;;5.30;4.80;;;9.70;99.90;;;;;;5028947;28;20271;-69
2022/11/29 06:44:16;;;;;;;5.43;4.90;;;9.70;99.90;;;;;;5029502;28;20456;-67
2022/11/29 06:46:56;;;;;;;4.90;4.40;;;9.60;99.90;;;;;;5028402;28;20183;-67
2022/11/29 06:49:33;;;;;;;6.03;5.35;;;9.40;99.90;;;;;;5022202;28;20459;-67
2022/11/29 06:52:21;;;;;;;5.18;4.75;;;9.40;99.90;;;;;;5020312;28;20186;-65
2022/11/29 06:54:50;;;;;;;5.13;4.63;;;9.60;99.90;;;;;;5017903;28;20719;-65
2022/11/29 06:57:43;;;;;;;5.65;5.10;;;9.70;99.90;;;;;;5029637;28;20332;-66
2022/11/29 07:00:21;;;;;;;5.38;4.88;;;9.70;99.90;;;;;;5023735;28;20189;-65
2022/11/29 07:03:18;;;;;;;6.65;4.90;;;9.70;99.90;;;;;;5029301;28;20214;-66
2022/11/29 07:05:45;;;;;;;5.63;5.13;;;9.90;99.90;;;;;;5031361;28;20618;-65
2022/11/29 07:08:20;;;;;;;5.35;4.95;;;9.80;99.90;;;;;;5028026;28;20214;-66
2022/11/29 07:10:48;;;;;;;8.95;6.97;;;10.00;99.90;;;;;;5031804;28;20185;-65
2022/11/29 07:13:15;;;;;;;8.20;7.18;;;9.60;99.90;;;;;;5031705;28;20556;-64
2022/11/29 07:15:51;;;;;;;14.30;9.65;;;9.90;99.90;;;;;;5027851;28;20190;-65
2022/11/29 07:18:58;;;;;;;6.32;5.25;;;9.80;99.90;;;;;;5032692;28;20188;-65
2022/11/29 07:21:58;;;;;;;6.47;5.25;;;9.70;99.90;;;;;;4987101;28;20195;-66
2022/11/29 07:24:40;;;;;;;8.48;7.20;;;10.00;99.90;;;;;;5014390;28;20230;-65
2022/11/29 07:27:18;;;;;;;5.60;5.00;;;10.00;99.90;;;;;;5028390;28;20285;-64
2022/11/29 07:29:58;;;;;;;5.63;4.85;;;9.90;99.90;;;;;;5031097;28;20732;-65
2022/11/29 07:32:36;;;;;;;5.80;5.25;;;9.80;99.90;;;;;;5026979;28;20269;-64
2022/11/29 07:35:18;;;;;;;4.90;4.50;;;9.60;99.90;;;;;;5029468;28;20202;-66
2022/11/29 07:38:01;;;;;;;6.05;5.45;;;9.60;99.90;;;;;;5027802;28;20245;-65
2022/11/29 07:40:39;;;;;;;7.40;6.70;;;9.90;99.90;;;;;;5030794;28;20198;-65
2022/11/29 07:43:24;;;;;;;6.05;5.40;;;9.80;99.90;;;;;;5024644;28;20220;-63
2022/11/29 07:45:50;;;;;;;5.18;4.70;;;9.80;99.90;;;;;;5028507;28;20261;-64
2022/11/29 07:48:16;;;;;;;5.45;4.70;;;9.80;99.90;;;;;;5031142;28;20179;-63
2022/11/29 07:50:43;;;;;;;5.60;5.10;;;9.60;99.90;;;;;;5031940;28;20191;-64
2022/11/29 07:53:17;;;;;;;5.47;4.97;;;9.90;99.90;;;;;;5029357;28;20548;-64
2022/11/29 07:55:43;;;;;;;5.50;5.03;;;9.90;99.90;;;;;;5031228;28;20277;-64
2022/11/29 07:58:13;;;;;;;5.40;4.90;;;9.70;99.90;;;;;;5030677;28;20716;-65
2022/11/29 08:00:41;;;;;;;5.00;4.50;;;9.70;99.90;;;;;;5028309;28;20437;-65
2022/11/29 08:03:07;;;;;;;5.57;5.07;;;10.00;99.90;;;;;;5031672;28;20580;-65
2022/11/29 08:05:32;;;;;;;5.18;4.70;;;10.20;99.90;;;;;;5030106;28;20269;-66
2022/11/29 08:07:58;;;;;;;5.37;4.87;;;10.30;99.90;;;;;;5028827;28;20186;-66
2022/11/29 08:10:24;;;;;;;4.87;4.47;;;10.20;99.90;;;;;;5028456;28;20186;-64
2022/11/29 08:12:50;;;;;;;6.30;5.67;;;9.90;99.90;;;;;;5031018;28;20445;-65
2022/11/29 08:15:18;;;;;;;5.25;4.65;;;10.00;99.90;;;;;;5030382;28;20203;-64
2022/11/29 08:17:44;;;;;;;5.20;4.70;;;10.00;99.90;;;;;;5028347;28;20190;-64
2022/11/29 08:20:11;;;;;;;4.63;4.23;;;10.10;99.90;;;;;;5030375;28;20253;-66
2022/11/29 08:22:36;;;;;;;5.55;5.05;;;10.10;99.90;;;;;;5031134;28;20469;-67
2022/11/29 08:25:03;;;;;;;4.60;4.20;;;10.00;99.90;;;;;;5031413;28;20286;-64
2022/11/29 08:27:29;;;;;;;6.03;4.82;;;10.20;99.90;;;;;;5031555;28;20635;-64
2022/11/29 08:29:55;;;;;;;5.20;4.70;;;10.10;99.90;;;;;;5027760;28;20259;-66
2022/11/29 08:32:21;;;;;;;5.23;4.77;;;10.20;99.90;;;;;;5028874;28;20536;-65
2022/11/29 08:34:46;;;;;;;4.90;4.50;;;10.20;99.90;;;;;;5031221;28;20198;-64
2022/11/29 08:37:12;;;;;;;5.40;5.00;;;10.10;99.90;;;;;;5030109;28;20193;-67
2022/11/29 08:39:38;;;;;;;6.03;5.53;;;10.10;99.90;;;;;;5029579;28;20191;-61
2022/11/29 08:42:03;;;;;;;6.13;5.57;;;10.10;99.90;;;;;;5028232;28;20215;-63
2022/11/29 08:44:29;;;;;;;6.07;5.53;;;10.00;99.90;;;;;;5028824;28;20247;-63
2022/11/29 08:50:00;;;;;;;6.47;5.53;;;9.90;99.90;;;;;;5029820;28;20309;-62
2022/11/29 08:55:09;;;;;;;6.15;5.13;;;10.00;99.90;;;;;;5027364;28;20311;-67
2022/11/29 08:57:35;;;;;;;6.30;5.57;;;10.10;99.90;;;;;;5033333;28;20619;-68
2022/11/29 09:00:02;;;;;;;6.33;5.73;;;10.00;99.90;;;;;;5026180;28;20194;-64
2022/11/29 09:02:28;;;;;;;5.45;5.05;;;9.90;99.90;;;;;;5027363;28;20288;-63
2022/11/29 09:04:53;;;;;;;5.70;5.20;;;10.10;99.90;;;;;;5029481;28;20253;-65
2022/11/29 09:07:19;;;;;;;4.93;4.53;;;10.10;99.90;;;;;;5028707;28;20179;-67
2022/11/29 09:09:45;;;;;;;5.27;4.77;;;10.10;99.90;;;;;;5028716;28;20199;-66
2022/11/29 09:12:10;;;;;;;5.60;5.00;;;9.80;99.90;;;;;;5027457;28;20606;-66
2022/11/29 09:14:36;;;;;;;6.40;5.03;;;10.10;99.90;;;;;;5028650;28;20595;-63
2022/11/29 09:17:02;;;;;;;14.20;11.83;;;10.50;99.90;;;;;;5025510;28;20195;-63
2022/11/29 09:19:27;;;;;;;8.07;5.27;;;10.10;99.90;;;;;;5029004;28;20559;-63
2022/11/29 09:21:53;;;;;;;4.67;4.10;;;10.10;99.90;;;;;;5027531;28;20554;-65
2022/11/29 09:24:19;;;;;;;5.50;4.97;;;9.90;99.90;;;;;;5027830;28;20704;-64
2022/11/29 09:26:47;;;;;;;6.30;5.70;;;9.80;99.90;;;;;;5028665;28;20442;-66
2022/11/29 09:29:14;;;;;;;5.85;4.50;;;9.60;99.90;;;;;;5028279;28;20178;-66
2022/11/29 09:31:41;;;;;;;5.43;4.93;;;9.60;99.90;;;;;;5027917;28;20194;-68
2022/11/29 09:34:07;;;;;;;5.45;4.88;;;9.90;99.90;;;;;;5028059;28;20210;-65
2022/11/29 09:36:32;;;;;;;6.13;5.47;;;9.70;99.90;;;;;;5025451;28;20187;-65
2022/11/29 09:39:01;;;;;;;5.67;5.17;;;10.00;99.90;;;;;;5028302;28;20319;-67
2022/11/29 09:41:27;;;;;;;5.72;5.07;;;9.80;99.90;;;;;;5025800;28;20538;-65
2022/11/29 09:44:24;;;;;;;6.27;5.47;;;9.90;99.90;;;;;;5025223;28;20237;-63
2022/11/29 09:46:59;;;;;;;6.93;6.25;;;9.90;99.90;;;;;;5026879;28;20237;-68
2022/11/29 09:49:42;;;;;;;6.22;5.63;;;10.20;99.90;;;;;;5028386;28;20193;-68
2022/11/29 09:52:25;;;;;;;5.78;5.18;;;10.30;99.90;;;;;;5022540;28;20186;-68
2022/11/29 09:55:28;;;;;;;9.73;5.90;;;10.00;99.90;;;;;;5036109;28;20575;-68
2022/11/29 09:57:58;;;;;;;8.82;7.15;;;10.00;99.90;;;;;;5024633;28;20237;-67
2022/11/29 10:00:24;;;;;;;7.25;6.45;;;10.00;99.90;;;;;;5021804;28;20187;-67
2022/11/29 10:03:02;;;;;;;6.45;5.80;;;9.90;99.90;;;;;;5031972;28;20221;-64
2022/11/29 10:05:46;;;;;;;8.75;7.95;;;10.10;99.90;;;;;;5026752;28;20170;-66
2022/11/29 10:08:26;;;;;;;6.78;5.90;;;9.90;99.90;;;;;;5026177;28;20265;-64
2022/11/29 10:10:59;;;;;;;7.00;6.30;;;9.80;99.90;;;;;;5028432;28;20183;-64
2022/11/29 10:13:30;;;;;;;8.95;7.10;;;9.80;99.90;;;;;;5016243;28;20679;-65
2022/11/29 10:16:12;;;;;;;9.32;8.02;;;9.80;99.90;;;;;;5021065;28;20203;-65
2022/11/29 10:19:00;;;;;;;9.35;7.53;;;9.80;99.90;;;;;;5028385;28;20189;-65
2022/11/29 10:21:35;;;;;;;8.65;7.13;;;9.90;99.90;;;;;;5018735;28;20573;-65
2022/11/29 10:24:08;;;;;;;10.68;8.35;;;9.90;99.90;;;;;;5037189;28;20262;-65
2022/11/29 10:26:34;;;;;;;12.52;9.25;;;9.80;99.90;;;;;;5041706;28;20217;-64
2022/11/29 10:29:00;;;;;;;13.63;8.90;;;9.70;99.90;;;;;;5031622;28;20635;-64
2022/11/29 10:31:41;;;;;;;11.83;9.00;;;10.10;99.90;;;;;;5021038;28;20566;-64
2022/11/29 10:34:14;;;;;;;7.70;6.60;;;9.80;99.90;;;;;;5025660;28;20206;-66
2022/11/29 10:36:49;;;;;;;9.07;7.15;;;10.00;99.90;;;;;;5031238;28;20214;-66
2022/11/29 10:39:38;;;;;;;10.07;7.88;;;9.90;99.90;;;;;;5032993;28;20249;-65
2022/11/29 10:42:47;;;;;;;9.85;7.75;;;10.00;99.90;;;;;;5032408;28;20563;-66
2022/11/29 10:44:58;;;;;;;12.90;9.10;;;10.00;99.90;;;;;;5033408;28;20204;-64
2022/11/29 10:47:24;;;;;;;11.45;9.48;;;10.00;99.90;;;;;;5031911;28;20277;-65
2022/11/29 10:49:50;;;;;;;12.67;10.23;;;9.90;99.90;;;;;;5031033;28;20731;-65
2022/11/29 10:52:18;;;;;;;11.47;10.27;;;9.90;99.90;;;;;;5029610;28;20232;-65
2022/11/29 10:54:45;;;;;;;14.93;9.63;;;10.00;99.90;;;;;;5035611;28;20638;-66
2022/11/29 10:57:17;;;;;;;12.77;10.40;;;9.90;99.90;;;;;;5037119;28;20674;-64
2022/11/29 11:00:03;;;;;;;12.13;10.10;;;10.20;99.90;;;;;;5034108;28;20201;-66
2022/11/29 11:02:30;;;;;;;10.98;9.88;;;10.10;99.90;;;;;;5034671;28;20325;-65
2022/11/29 11:04:57;;;;;;;13.23;10.85;;;10.00;99.90;;;;;;5044088;28;20200;-65
2022/11/29 11:07:27;;;;;;;10.60;9.13;;;10.30;99.90;;;;;;5040024;28;20242;-65
2022/11/29 11:09:55;;;;;;;11.52;10.32;;;10.10;99.90;;;;;;5050582;28;20766;-63
2022/11/29 11:12:25;;;;;;;9.82;8.82;;;10.30;99.90;;;;;;5034634;28;20655;-66
2022/11/29 11:15:11;;;;;;;12.07;10.10;;;9.90;99.90;;;;;;5043905;28;20213;-65
2022/11/29 11:17:38;;;;;;;10.45;9.45;;;9.70;99.90;;;;;;5052278;28;20183;-63
2022/11/29 11:20:09;;;;;;;10.02;9.10;;;10.10;99.90;;;;;;5043604;28;20191;-65
2022/11/29 11:22:38;;;;;;;11.07;9.88;;;9.80;99.90;;;;;;5029084;28;20570;-66
2022/11/29 11:25:23;;;;;;;10.65;9.52;;;10.10;99.90;;;;;;5031925;28;20199;-66
2022/11/29 11:27:48;;;;;;;11.00;9.90;;;9.70;99.90;;;;;;5032163;28;20189;-66
2022/11/29 11:30:21;;;;;;;11.83;9.77;;;9.70;99.90;;;;;;5032160;28;20178;-65
2022/11/29 11:33:28;;;;;;;12.02;10.38;;;10.00;99.90;;;;;;5030962;28;20523;-66
2022/11/29 11:36:10;;;;;;;10.73;9.57;;;10.00;99.90;;;;;;5032010;28;20203;-65
2022/11/29 11:38:48;;;;;;;11.88;10.18;;;9.60;99.90;;;;;;5031991;28;20182;-64
2022/11/29 11:41:21;;;;;;;11.45;10.25;;;9.70;99.90;;;;;;5029830;28;20233;-66
2022/11/29 11:43:58;;;;;;;11.90;10.07;;;9.50;99.90;;;;;;5024891;28;20231;-63
2022/11/29 11:46:48;;;;;;;10.75;9.38;;;9.60;99.90;;;;;;5030549;28;20528;-65
2022/11/29 11:49:34;;;;;;;9.85;8.68;;;9.80;99.90;;;;;;5047370;28;20182;-64
2022/11/29 11:52:02;;;;;;;9.32;8.35;;;9.80;99.90;;;;;;5027616;28;20536;-63
2022/11/29 11:54:28;;;;;;;9.75;8.75;;;9.80;99.90;;;;;;5037654;28;20303;-63
2022/11/29 11:56:54;;;;;;;8.55;7.75;;;9.60;99.90;;;;;;5027502;28;20273;-64
2022/11/29 11:59:25;;;;;;;9.00;8.10;;;9.80;99.90;;;;;;5036048;28;20199;-64
2022/11/29 12:01:51;;;;;;;9.85;8.85;;;9.80;99.90;;;;;;5030486;28;20311;-66
2022/11/29 12:04:25;;;;;;;9.35;8.45;;;10.00;99.90;;;;;;5030429;28;20671;-65
2022/11/29 12:06:59;;;;;;;9.18;7.65;;;9.70;99.90;;;;;;5029463;28;20590;-64
2022/11/29 12:09:31;;;;;;;10.32;8.52;;;9.70;99.90;;;;;;5025541;28;20620;-67
2022/11/29 12:12:05;;;;;;;8.30;7.50;;;9.70;99.90;;;;;;5031299;28;20192;-64
2022/11/29 12:14:46;;;;;;;10.30;9.10;;;9.80;99.90;;;;;;5029234;28;20297;-63
2022/11/29 12:17:18;;;;;;;8.90;8.00;;;9.60;99.90;;;;;;5029555;28;20244;-65
2022/11/29 12:19:58;;;;;;;8.10;7.30;;;9.90;99.90;;;;;;5027321;28;20232;-62
2022/11/29 12:22:29;;;;;;;8.90;8.00;;;9.70;99.90;;;;;;5028943;28;20264;-64
2022/11/29 12:25:01;;;;;;;12.30;10.85;;;9.90;99.90;;;;;;5029415;28;20202;-66
2022/11/29 12:27:29;;;;;;;8.70;7.82;;;9.90;99.90;;;;;;5040209;28;20183;-62
2022/11/29 12:29:55;;;;;;;8.68;7.88;;;9.90;99.90;;;;;;5027803;28;20203;-65
2022/11/29 12:32:45;;;;;;;10.48;8.20;;;9.90;99.90;;;;;;5027681;28;20761;-63
2022/11/29 12:35:24;;;;;;;7.95;7.15;;;9.90;99.90;;;;;;5027804;28;20683;-65
2022/11/29 12:38:15;;;;;;;8.88;7.97;;;9.90;99.90;;;;;;5028598;28;20187;-65
2022/11/29 12:41:16;;;;;;;8.15;7.35;;;10.10;99.90;;;;;;5024935;28;20186;-65
2022/11/29 12:44:03;;;;;;;8.63;7.80;;;10.10;99.90;;;;;;5000730;28;20278;-66
2022/11/29 12:46:31;;;;;;;14.85;13.25;;;10.10;99.90;;;;;;5021847;28;20215;-65
2022/11/29 12:49:15;;;;;;;9.35;8.52;;;10.20;99.90;;;;;;5028913;28;20560;-66
2022/11/29 12:51:55;;;;;;;10.45;9.32;;;10.10;99.90;;;;;;5027042;28;20551;-66
2022/11/29 12:54:33;;;;;;;8.05;7.25;;;9.80;99.90;;;;;;5029185;28;20584;-62
2022/11/29 12:56:58;;;;;;;9.50;8.63;;;9.90;99.90;;;;;;5029552;28;20184;-67
2022/11/29 12:59:36;;;;;;;14.00;12.70;;;10.00;99.90;;;;;;5028668;28;20762;-67
2022/11/29 13:02:19;;;;;;;10.70;9.60;;;9.60;99.90;;;;;;5029306;28;20364;-62
2022/11/29 13:05:18;;;;;;;15.00;12.93;;;9.50;99.90;;;;;;5027308;28;20251;-63
2022/11/29 13:07:59;;;;;;;9.93;8.93;;;9.60;99.90;;;;;;5025833;28;20189;-62
2022/11/29 13:10:58;;;;;;;12.35;10.10;;;9.80;99.90;;;;;;5026764;28;20227;-64
2022/11/29 13:13:27;;;;;;;11.82;10.65;;;9.70;99.90;;;;;;5027719;28;20214;-64
2022/11/29 13:16:04;;;;;;;11.43;10.23;;;9.50;99.90;;;;;;5028187;28;20656;-63
2022/11/29 13:18:37;;;;;;;9.63;8.82;;;9.80;99.90;;;;;;5029578;28;20221;-63
2022/11/29 13:21:12;;;;;;;9.93;9.00;;;9.80;99.90;;;;;;5020311;28;20187;-65
2022/11/29 13:23:58;;;;;;;9.70;8.80;;;9.70;99.90;;;;;;5025837;28;20669;-64
2022/11/29 13:26:26;;;;;;;8.95;8.15;;;9.60;99.90;;;;;;5025292;28;20269;-63
2022/11/29 13:28:52;;;;;;;10.77;9.63;;;9.90;99.90;;;;;;5028340;28;20310;-62
2022/11/29 13:31:23;;;;;;;9.10;8.30;;;9.60;99.90;;;;;;5029525;28;20194;-65
2022/11/29 13:34:05;;;;;;;10.00;9.10;;;9.80;99.90;;;;;;5027646;28;20202;-64
2022/11/29 13:36:42;;;;;;;10.32;9.43;;;9.60;99.90;;;;;;5027896;28;20238;-64